createdAt,value
2017-08-25T00:01:50.053Z,12.07
2017-08-25T00:04:19.026Z,11.65
2017-08-25T00:06:48.000Z,11.00
2017-08-25T00:09:17.029Z,12.15
2017-08-25T00:11:46.075Z,11.95
2017-08-25T00:14:14.981Z,13.45
2017-08-25T00:16:45.018Z,12.18
2017-08-25T00:19:14.191Z,12.05
2017-08-25T00:21:43.178Z,12.52
2017-08-25T00:24:12.095Z,13.02
2017-08-25T00:26:41.012Z,12.30
2017-08-25T00:29:10.653Z,12.90
2017-08-25T00:31:39.966Z,13.23
2017-08-25T00:34:09.366Z,11.95
2017-08-25T00:36:38.302Z,11.82
2017-08-25T00:39:07.212Z,12.40
2017-08-25T00:41:36.139Z,13.50
2017-08-25T00:44:05.056Z,13.00
2017-08-25T00:46:34.262Z,12.52
2017-08-25T00:49:03.163Z,11.85
2017-08-25T00:51:32.124Z,14.00
2017-08-25T00:54:01.058Z,13.02
2017-08-25T00:56:29.992Z,13.05
2017-08-25T00:58:58.932Z,12.75
2017-08-25T01:01:27.998Z,13.80
2017-08-25T01:03:56.944Z,13.95
2017-08-25T01:06:25.912Z,13.90
2017-08-25T01:08:54.827Z,14.95
2017-08-25T01:11:23.968Z,14.07
2017-08-25T01:13:53.295Z,14.50
2017-08-25T01:16:22.231Z,15.05
2017-08-25T01:18:51.146Z,14.60
2017-08-25T01:21:20.127Z,15.23
2017-08-25T01:23:49.217Z,13.93
2017-08-25T01:26:18.197Z,15.00
2017-08-25T01:28:47.195Z,13.15
2017-08-25T01:31:16.128Z,13.52
2017-08-25T01:33:45.915Z,13.80
2017-08-25T01:36:15.187Z,14.57
2017-08-25T01:38:44.482Z,14.70
2017-08-25T01:41:13.601Z,15.20
2017-08-25T01:43:42.947Z,14.10
2017-08-25T01:46:11.990Z,15.00
2017-08-25T01:48:41.217Z,13.73
2017-08-25T01:51:10.271Z,15.52
2017-08-25T01:53:39.282Z,14.45
2017-08-25T01:56:08.682Z,13.80
2017-08-25T01:58:37.654Z,15.75
2017-08-25T02:01:06.684Z,16.65
2017-08-25T02:03:35.632Z,15.93
2017-08-25T02:06:04.575Z,14.15
2017-08-25T02:08:34.598Z,15.27
2017-08-25T02:11:04.306Z,13.80
2017-08-25T02:13:33.488Z,14.57
2017-08-25T02:16:02.465Z,14.40
2017-08-25T02:18:31.470Z,14.80
2017-08-25T02:21:01.470Z,15.10
2017-08-25T02:23:30.412Z,16.30
2017-08-25T02:25:59.486Z,14.45
2017-08-25T02:28:29.515Z,15.70
2017-08-25T02:30:58.755Z,14.87
2017-08-25T02:33:27.688Z,15.38
2017-08-25T02:35:57.102Z,15.50
2017-08-25T02:38:26.000Z,16.48
2017-08-25T02:40:55.892Z,15.57
2017-08-25T02:43:24.747Z,15.30
2017-08-25T02:45:53.631Z,15.20
2017-08-25T02:48:22.527Z,15.15
2017-08-25T02:50:51.435Z,15.73
2017-08-25T02:53:20.365Z,14.70
2017-08-25T02:55:50.014Z,14.75
2017-08-25T02:58:19.243Z,16.00
2017-08-25T03:00:48.142Z,14.75
2017-08-25T03:03:17.011Z,15.15
2017-08-25T03:05:45.955Z,15.15
2017-08-25T03:08:15.295Z,15.35
2017-08-25T03:10:44.188Z,16.48
2017-08-25T03:13:13.079Z,15.65
2017-08-25T03:15:42.251Z,15.27
2017-08-25T03:18:11.122Z,16.65
2017-08-25T03:20:40.108Z,15.52
2017-08-25T03:23:08.989Z,16.77
2017-08-25T03:25:38.222Z,16.85
2017-08-25T03:28:07.140Z,16.77
2017-08-25T03:30:36.091Z,18.08
2017-08-25T03:33:05.382Z,17.02
2017-08-25T03:35:34.267Z,17.87
2017-08-25T03:38:03.479Z,16.15
2017-08-25T03:40:32.354Z,16.98
2017-08-25T03:43:01.265Z,17.52
2017-08-25T03:45:31.332Z,17.30
2017-08-25T03:48:00.241Z,16.42
2017-08-25T03:50:29.145Z,16.73
2017-08-25T03:52:58.034Z,16.87
2017-08-25T03:55:27.726Z,16.35
2017-08-25T03:57:57.437Z,16.30
2017-08-25T04:00:26.333Z,16.85
2017-08-25T04:02:55.250Z,19.80
2017-08-25T04:05:24.115Z,16.15
2017-08-25T04:07:53.019Z,16.50
2017-08-25T04:10:21.894Z,17.70
2017-08-25T04:12:50.801Z,17.85
2017-08-25T04:15:19.702Z,16.37
2017-08-25T04:17:49.394Z,17.62
2017-08-25T04:20:19.314Z,17.25
2017-08-25T04:22:48.250Z,18.02
2017-08-25T04:25:17.188Z,18.25
2017-08-25T04:27:46.098Z,18.75
2017-08-25T04:30:15.056Z,20.08
2017-08-25T04:32:43.918Z,19.02
2017-08-25T04:35:12.864Z,19.25
2017-08-25T04:37:42.175Z,20.37
2017-08-25T04:40:11.137Z,20.10
2017-08-25T04:42:40.095Z,20.58
2017-08-25T04:45:09.827Z,20.30
2017-08-25T04:47:38.738Z,19.52
2017-08-25T04:50:08.433Z,19.05
2017-08-25T04:52:37.331Z,20.48
2017-08-25T04:55:06.253Z,18.50
2017-08-25T04:57:35.903Z,19.15
2017-08-25T05:00:04.850Z,18.40
2017-08-25T05:02:33.785Z,18.98
2017-08-25T05:05:02.714Z,18.40
2017-08-25T05:07:32.401Z,18.50
2017-08-25T05:10:01.290Z,18.25
2017-08-25T05:12:30.291Z,18.40
2017-08-25T05:14:59.208Z,18.40
2017-08-25T05:17:28.096Z,17.90
2017-08-25T05:19:57.791Z,16.40
2017-08-25T05:22:27.498Z,19.05
2017-08-25T05:24:57.639Z,17.77
2017-08-25T05:27:32.790Z,18.10
2017-08-25T05:30:01.801Z,17.25
2017-08-25T05:32:30.762Z,18.10
2017-08-25T05:34:59.761Z,18.40
2017-08-25T05:37:28.713Z,19.73
2017-08-25T05:39:58.907Z,17.62
2017-08-25T05:42:27.834Z,17.87
2017-08-25T06:28:37.154Z,16.80
2017-08-25T06:31:06.099Z,16.48
2017-08-25T06:33:35.039Z,16.53
2017-08-25T06:36:04.009Z,15.43
2017-08-25T06:38:32.909Z,15.13
2017-08-25T06:41:01.788Z,14.57
2017-08-25T06:43:30.852Z,14.63
2017-08-25T06:45:59.746Z,14.47
2017-08-25T06:48:28.659Z,13.82
2017-08-25T06:50:58.423Z,13.87
2017-08-25T06:53:28.070Z,14.00
2017-08-25T06:55:57.056Z,12.97
2017-08-25T06:58:26.790Z,14.27
2017-08-25T07:00:55.752Z,13.57
2017-08-25T07:03:24.703Z,13.63
2017-08-25T07:05:54.399Z,14.33
2017-08-25T07:08:23.296Z,14.00
2017-08-25T07:10:52.222Z,13.10
2017-08-25T07:13:21.222Z,13.77
2017-08-25T07:15:50.236Z,14.33
2017-08-25T07:18:19.140Z,14.03
2017-08-25T07:20:48.113Z,14.13
2017-08-25T07:23:17.014Z,14.00
2017-08-25T07:25:45.940Z,13.17
2017-08-25T07:28:15.032Z,12.77
2017-08-25T07:30:44.051Z,12.80
2017-08-25T07:33:13.022Z,11.67
2017-08-25T07:35:41.963Z,10.60
2017-08-25T07:38:10.946Z,10.90
2017-08-25T07:40:40.058Z,10.37
2017-08-25T07:43:09.054Z,11.13
2017-08-25T07:45:38.099Z,11.33
2017-08-25T07:48:07.795Z,11.33
2017-08-25T07:50:36.746Z,11.10
2017-08-25T07:53:05.671Z,11.13
2017-08-25T07:55:35.395Z,11.40
2017-08-25T07:58:04.343Z,12.60
2017-08-25T08:00:33.266Z,12.93
2017-08-25T08:03:02.443Z,11.57
2017-08-25T08:05:31.407Z,10.67
2017-08-25T08:08:00.387Z,17.50
2017-08-25T08:10:29.467Z,10.90
2017-08-25T08:12:58.491Z,10.07
2017-08-25T08:15:27.414Z,10.37
2017-08-25T08:17:56.393Z,9.07
2017-08-25T08:20:25.659Z,9.90
2017-08-25T08:23:57.266Z,9.43
2017-08-25T08:26:26.216Z,8.67
2017-08-25T08:28:55.979Z,8.93
2017-08-25T08:31:25.270Z,9.70
2017-08-25T08:33:54.213Z,8.67
2017-08-25T08:36:27.259Z,7.13
2017-08-25T08:38:56.223Z,7.77
2017-08-25T08:41:27.045Z,11.03
2017-08-25T08:43:57.278Z,9.37
2017-08-25T08:46:27.966Z,7.80
2017-08-25T08:48:57.875Z,8.87
2017-08-25T08:51:27.607Z,8.50
2017-08-25T08:53:56.498Z,7.50
2017-08-25T08:56:25.480Z,8.53
2017-08-25T08:58:55.167Z,6.87
2017-08-25T09:01:24.284Z,7.97
2017-08-25T09:03:53.211Z,7.40
2017-08-25T09:06:26.376Z,7.83
2017-08-25T09:08:55.403Z,7.10
2017-08-25T09:11:24.358Z,7.93
2017-08-25T09:13:53.366Z,6.20
2017-08-25T09:16:22.332Z,7.60
2017-08-25T09:18:52.314Z,8.30
2017-08-25T09:21:21.998Z,6.60
2017-08-25T09:23:51.751Z,8.47
2017-08-25T09:26:21.506Z,6.50
2017-08-25T09:28:50.831Z,8.90
2017-08-25T09:31:20.710Z,8.47
2017-08-25T09:33:49.970Z,6.83
2017-08-25T09:36:19.950Z,5.87
2017-08-25T09:40:09.068Z,6.60
2017-08-25T09:42:39.171Z,6.70
2017-08-25T09:45:08.270Z,7.77
2017-08-25T09:47:37.352Z,6.90
2017-08-25T09:50:06.408Z,6.30
2017-08-25T09:52:35.373Z,6.50
2017-08-25T09:55:05.123Z,6.57
2017-08-25T09:57:34.208Z,6.50
2017-08-25T10:00:03.108Z,5.17
2017-08-25T10:02:32.143Z,5.20
2017-08-25T10:05:01.336Z,5.10
2017-08-25T10:07:32.307Z,5.10
2017-08-25T10:10:02.237Z,4.70
2017-08-25T10:12:31.504Z,4.43
2017-08-25T10:15:01.411Z,4.37
2017-08-25T10:17:30.730Z,4.67
2017-08-25T10:20:00.700Z,3.97
2017-08-25T10:22:31.166Z,4.50
2017-08-25T10:25:01.446Z,3.30
2017-08-25T10:27:30.628Z,3.07
2017-08-25T10:30:00.814Z,3.07
2017-08-25T10:32:30.775Z,2.80
2017-08-25T10:41:30.650Z,3.30
2017-08-25T10:45:13.580Z,2.67
2017-08-25T10:47:43.418Z,2.80
2017-08-25T10:50:12.478Z,2.80
2017-08-25T10:52:41.714Z,3.40
2017-08-25T10:55:11.167Z,2.83
2017-08-25T10:57:40.982Z,2.20
2017-08-25T11:00:10.473Z,2.20
2017-08-25T11:02:39.904Z,2.63
2017-08-25T11:05:09.458Z,2.60
2017-08-25T11:07:38.475Z,2.77
2017-08-25T11:10:10.459Z,2.10
2017-08-25T11:12:40.741Z,2.30
2017-08-25T11:58:52.799Z,2.40
2017-08-25T12:01:23.068Z,2.60
2017-08-25T12:03:52.048Z,2.63
2017-08-25T12:06:23.463Z,3.20
2017-08-25T12:08:53.237Z,2.67
2017-08-25T12:11:22.185Z,2.70
2017-08-25T12:13:52.167Z,2.70
2017-08-25T12:16:21.203Z,3.30
2017-08-25T12:18:55.224Z,3.87
2017-08-25T12:21:25.055Z,3.83
2017-08-25T12:23:54.014Z,4.27
2017-08-25T12:26:24.597Z,3.17
2017-08-25T12:28:53.541Z,3.50
2017-08-25T12:31:22.524Z,3.50
2017-08-25T12:33:51.550Z,3.50
2017-08-25T12:36:21.311Z,3.70
2017-08-25T12:38:50.532Z,3.57
2017-08-25T12:41:19.671Z,4.30
2017-08-25T12:43:49.617Z,3.53
2017-08-25T12:46:18.605Z,3.83
2017-08-25T12:48:47.698Z,4.30
2017-08-25T12:51:16.656Z,3.53
2017-08-25T12:53:47.387Z,3.27
2017-08-25T12:56:17.283Z,3.80
2017-08-25T12:58:46.304Z,3.30
2017-08-25T13:01:15.533Z,3.47
2017-08-25T13:03:44.687Z,3.63
2017-08-25T13:06:14.165Z,3.33
2017-08-25T13:08:43.481Z,4.50
2017-08-25T13:11:12.572Z,4.00
2017-08-25T13:13:41.952Z,4.07
2017-08-25T13:16:12.451Z,3.60
2017-08-25T13:18:41.497Z,4.10
2017-08-25T13:21:10.567Z,4.10
2017-08-25T13:23:39.661Z,3.73
2017-08-25T13:26:08.960Z,3.83
2017-08-25T13:28:39.744Z,4.97
2017-08-25T13:31:09.238Z,4.50
2017-08-25T13:33:38.298Z,3.73
2017-08-25T13:36:08.011Z,5.10
2017-08-25T13:38:38.159Z,5.30
2017-08-25T13:41:07.245Z,4.40
2017-08-25T13:43:36.314Z,4.80
2017-08-25T13:46:05.387Z,4.63
2017-08-25T13:48:34.698Z,3.70
2017-08-25T13:51:03.791Z,5.30
2017-08-25T13:53:32.908Z,4.33
2017-08-25T13:56:02.654Z,4.03
2017-08-25T13:58:38.975Z,4.77
2017-08-25T14:01:08.157Z,3.40
2017-08-25T14:03:37.340Z,3.60
2017-08-25T14:06:06.443Z,4.77
2017-08-25T14:08:35.465Z,3.50
2017-08-25T14:11:05.202Z,4.07
2017-08-25T14:13:34.310Z,4.37
2017-08-25T14:16:04.073Z,3.00
2017-08-25T14:18:33.463Z,3.83
2017-08-25T14:21:03.339Z,3.37
2017-08-25T14:23:32.429Z,2.80
2017-08-25T14:26:02.481Z,3.67
2017-08-25T14:28:31.832Z,3.20
2017-08-25T14:31:00.995Z,3.50
2017-08-25T14:33:30.968Z,3.10
2017-08-25T14:36:01.782Z,3.10
2017-08-25T14:38:31.067Z,3.20
2017-08-25T14:41:00.359Z,3.93
2017-08-25T14:43:29.448Z,3.50
2017-08-25T14:45:59.338Z,3.70
2017-08-25T14:48:28.652Z,3.50
2017-08-25T14:51:04.914Z,3.83
2017-08-25T14:53:34.760Z,3.40
2017-08-25T14:56:03.949Z,3.17
2017-08-25T14:58:35.437Z,3.90
2017-08-25T15:01:04.779Z,3.80
2017-08-25T15:03:34.824Z,3.37
2017-08-25T15:06:04.560Z,3.90
2017-08-25T15:08:33.765Z,3.80
2017-08-25T15:11:03.802Z,3.50
2017-08-25T15:13:32.936Z,4.20
2017-08-25T15:16:02.361Z,4.23
2017-08-25T15:18:32.843Z,3.33
2017-08-25T15:21:06.600Z,3.30
2017-08-25T15:23:35.927Z,4.80
2017-08-25T15:26:04.862Z,3.60
2017-08-25T15:28:34.159Z,4.23
2017-08-25T15:31:03.399Z,4.03
2017-08-25T15:33:32.559Z,3.40
2017-08-25T15:36:02.390Z,4.20
2017-08-25T15:38:32.368Z,3.43
2017-08-25T15:41:02.718Z,4.00
2017-08-25T15:43:31.887Z,3.80
2017-08-25T15:46:00.796Z,3.77
2017-08-25T15:48:30.650Z,4.40
2017-08-25T15:50:59.710Z,4.20
2017-08-25T15:53:29.773Z,3.73
2017-08-25T15:55:58.743Z,4.30
2017-08-25T15:58:28.722Z,4.00
2017-08-25T16:00:57.788Z,3.90
2017-08-25T16:03:26.911Z,3.70
2017-08-25T16:05:55.984Z,3.53
2017-08-25T16:08:24.927Z,4.00
2017-08-25T16:10:53.891Z,3.70
2017-08-25T16:13:23.938Z,4.30
2017-08-25T16:15:52.985Z,3.40
2017-08-25T16:18:21.979Z,3.70
2017-08-25T16:20:50.950Z,4.33
2017-08-25T16:23:20.045Z,4.00
2017-08-25T16:25:48.976Z,3.83
2017-08-25T16:28:17.968Z,4.13
2017-08-25T16:30:47.010Z,4.00
2017-08-25T16:33:16.756Z,3.83
2017-08-25T16:35:45.875Z,3.77
2017-08-25T16:38:15.354Z,3.53
2017-08-25T16:40:44.438Z,3.87
2017-08-25T16:43:13.411Z,3.90
2017-08-25T16:45:43.901Z,3.67
2017-08-25T16:48:14.404Z,3.70
2017-08-25T16:50:43.374Z,3.40
2017-08-25T16:53:12.347Z,3.83
2017-08-25T16:55:42.608Z,3.90
2017-08-25T16:58:11.605Z,3.30
2017-08-25T17:00:41.358Z,4.00
2017-08-25T17:03:10.637Z,3.93
2017-08-25T17:05:40.223Z,3.30
2017-08-25T17:08:09.219Z,3.93
2017-08-25T17:10:39.392Z,3.73
2017-08-25T17:13:08.614Z,3.73
2017-08-25T17:15:37.566Z,3.90
2017-08-25T17:18:06.584Z,3.80
2017-08-25T17:20:36.296Z,3.57
2017-08-25T17:23:05.300Z,4.30
2017-08-25T17:25:35.336Z,4.57
2017-08-25T17:28:04.323Z,4.70
2017-08-25T17:30:33.571Z,3.90
2017-08-25T17:33:03.273Z,4.10
2017-08-25T17:35:32.266Z,3.87
2017-08-25T17:38:02.046Z,3.40
2017-08-25T17:40:31.305Z,4.00
2017-08-25T17:43:00.383Z,4.23
2017-08-25T17:45:30.212Z,4.30
2017-08-25T17:47:59.179Z,4.30
2017-08-25T17:50:28.156Z,4.10
2017-08-25T17:52:57.826Z,4.77
2017-08-25T18:39:13.094Z,3.80
2017-08-25T18:41:42.066Z,4.47
2017-08-25T18:44:11.056Z,4.43
2017-08-25T18:46:42.162Z,4.23
2017-08-25T18:49:11.187Z,3.90
2017-08-25T18:51:40.226Z,4.80
2017-08-25T18:54:10.330Z,4.80
2017-08-25T18:56:40.108Z,5.00
2017-08-25T18:59:09.844Z,4.03
2017-08-25T19:01:38.811Z,4.80
2017-08-25T19:04:08.866Z,4.50
2017-08-25T19:06:37.866Z,4.00
2017-08-25T19:09:06.864Z,4.50
2017-08-25T19:11:35.924Z,4.37
2017-08-25T19:14:04.906Z,4.40
2017-08-25T19:16:33.907Z,4.53
2017-08-25T19:19:02.823Z,4.90
2017-08-25T19:21:31.884Z,5.03
2017-08-25T19:24:00.780Z,4.63
2017-08-25T19:26:30.560Z,3.57
2017-08-25T19:29:00.275Z,4.40
2017-08-25T19:31:30.013Z,4.80
2017-08-25T19:33:58.931Z,4.07
2017-08-25T19:36:27.903Z,5.00
2017-08-25T19:38:56.923Z,4.33
2017-08-25T19:41:25.909Z,5.00
2017-08-25T19:43:54.905Z,3.90
2017-08-25T19:46:23.912Z,5.40
2017-08-25T19:48:52.893Z,4.30
2017-08-25T19:51:22.784Z,4.23
2017-08-25T19:53:52.550Z,4.53
2017-08-25T19:56:21.514Z,5.40
2017-08-25T19:58:50.438Z,5.00
2017-08-25T20:01:20.177Z,5.00
2017-08-25T20:03:49.103Z,4.90
2017-08-25T20:06:17.986Z,4.90
2017-08-25T20:08:46.895Z,5.63
2017-08-25T20:11:16.571Z,4.90
2017-08-25T20:13:46.275Z,4.73
2017-08-25T20:16:15.191Z,4.77
2017-08-25T20:18:44.916Z,5.33
2017-08-25T20:21:13.983Z,5.73
2017-08-25T20:23:42.939Z,5.60
2017-08-25T20:26:17.229Z,5.40
2017-08-25T20:28:46.245Z,4.90
2017-08-25T20:31:16.554Z,4.70
2017-08-25T20:33:46.380Z,5.00
2017-08-25T20:36:15.434Z,4.80
2017-08-25T20:38:44.398Z,4.57
2017-08-25T20:41:13.470Z,5.10
2017-08-25T20:43:43.336Z,5.03
2017-08-25T20:46:12.527Z,4.80
2017-08-25T20:48:42.098Z,5.50
2017-08-25T20:51:11.029Z,4.40
2017-08-25T20:53:40.118Z,5.10
2017-08-25T20:56:09.703Z,5.13
2017-08-25T20:58:38.662Z,5.23
2017-08-25T21:01:07.582Z,5.70
2017-08-25T21:03:37.482Z,5.23
2017-08-25T21:06:06.415Z,4.97
2017-08-25T21:08:35.354Z,4.67
2017-08-25T21:11:05.528Z,4.57
2017-08-25T21:13:34.601Z,5.40
2017-08-25T21:16:04.159Z,6.30
2017-08-25T21:18:33.876Z,5.40
2017-08-25T21:21:03.076Z,4.43
2017-08-25T21:23:34.261Z,5.50
2017-08-25T21:26:03.232Z,4.93
2017-08-25T21:28:32.297Z,5.03
2017-08-25T21:31:02.063Z,4.80
2017-08-25T21:33:31.135Z,5.67
2017-08-25T21:36:00.215Z,5.30
2017-08-25T21:38:29.891Z,4.93
2017-08-25T21:40:59.585Z,4.80
2017-08-25T21:43:28.531Z,5.20
2017-08-25T21:45:57.607Z,5.50
2017-08-25T21:48:27.349Z,4.60
2017-08-25T21:50:56.282Z,4.70
2017-08-25T21:53:25.271Z,4.80
2017-08-25T21:55:55.015Z,4.90
2017-08-25T21:58:24.702Z,4.60
2017-08-25T22:00:53.633Z,5.50
2017-08-25T22:03:23.372Z,5.67
2017-08-25T22:05:59.018Z,6.10
2017-08-25T22:08:31.024Z,5.40
2017-08-25T22:11:08.159Z,5.80
2017-08-25T22:13:43.518Z,5.50
2017-08-25T22:16:18.957Z,6.03
2017-08-25T22:18:53.130Z,6.33
2017-08-25T22:21:26.659Z,5.70
2017-08-25T22:24:16.345Z,5.87
2017-08-25T22:26:50.394Z,5.57
2017-08-25T22:29:22.292Z,6.20
2017-08-25T22:31:53.982Z,6.50
2017-08-25T22:34:24.010Z,6.70
2017-08-25T22:36:57.754Z,5.97
2017-08-25T22:39:28.100Z,6.87
2017-08-25T22:41:57.239Z,6.20
2017-08-25T22:44:26.205Z,6.50
2017-08-25T22:46:55.308Z,6.97
2017-08-25T22:49:26.725Z,6.00
2017-08-25T22:51:55.763Z,7.00
2017-08-25T22:54:24.847Z,7.60
2017-08-25T22:56:53.908Z,6.20
2017-08-25T22:59:23.164Z,6.60
2017-08-25T23:01:52.206Z,6.63
2017-08-25T23:04:21.447Z,7.50
2017-08-25T23:06:50.438Z,6.50
2017-08-25T23:09:19.353Z,6.50
2017-08-25T23:11:48.319Z,7.00
2017-08-25T23:14:17.258Z,7.20
2017-08-25T23:16:46.162Z,7.00
2017-08-25T23:19:15.043Z,6.83
2017-08-25T23:21:43.902Z,7.10
2017-08-25T23:24:12.857Z,6.73
2017-08-25T23:26:41.735Z,6.47
2017-08-25T23:29:10.647Z,7.60
2017-08-25T23:31:39.499Z,7.60
2017-08-25T23:34:09.160Z,7.30
2017-08-25T23:36:38.063Z,7.93
2017-08-25T23:39:06.950Z,7.73
2017-08-25T23:41:35.846Z,6.87
2017-08-25T23:44:04.755Z,6.77
2017-08-25T23:46:34.404Z,8.50
2017-08-25T23:49:03.400Z,8.23
2017-08-25T23:51:33.064Z,7.20
2017-08-25T23:54:01.970Z,6.93
2017-08-25T23:56:31.687Z,9.00
2017-08-25T23:59:00.578Z,8.60
